Owyhee, Nevada
Current Conditions -  °F | °C
As of 6:58 PM on Monday 20 Oct 2014 (Local Time) from KMUO Reporting Station
Broken Clouds Broken Clouds  
Wind Chill: 69°   Ceiling: 15000
Heat Index: 69°   Visibility: 10mi
Dew Point: 37°   Wind: 13mph
Humidity: 31%   Direction: 320°NW
Pressure: 29.7"   Gusts: NA
Location:  41.95°N, 116.09°W
Report Text: KMUO 210158Z 32011KT 10SM BKN150 BKN180 21/03 A2970 RMK AO2A SLP044 T02050028
Loading
Personal Weather Stations






























Interactive Weather Map
Tropical Storm Tracking
New forecast layout! Learn more

10-Day Weather Forecast

Advertisements
Track Severe Weather on mobile